Aérodrome :
LOGIN :

S'inscrire | Disclaimer

   EN    FR    IT 

 










Légende :    VFR   VFR Marginal   IFR   IFR Intensif   IFR Très Intensif
Visi : 
Plafond : 
>= 8 km
>= 3000ft
5 à 8 km
1000 à 3000 ft
1500m à 5 km
500 à 1000 ft
800 à 1500m
200 à 500 ft
< 800m
< 200 ft
Symboles :   Orages  Brouillard  Fortes neiges  Fortes précipitations  Vent > 20 kt
SIGMETs :   Divers  Orages  Givrage  Turbulence  Onde Orograph.  Cendres Volcan.






- Altitude de l'aérodrome : 26 ft
- Code IATA : BIA


LFKB - Bastia

DERNIER METAR :
  • 111300Z AUTO 11007KT 070V150 9999 TS BKN028/// ///CB 29/21 Q1014 NOSIG

METARs EXPIRÉS :
  • 111230Z AUTO 10007KT 070V140 9999 BKN032 29/22 Q1014 TEMPO TSRA FEW026CB SCT100
  • 111200Z AUTO 10008KT 060V140 9999 BKN031 29/22 Q1014 TEMPO TSRA FEW026CB SCT100
  • 111130Z AUTO 10007KT 070V140 9999 FEW030 29/21 Q1014 TEMPO TSRA FEW026CB SCT100
  • 111100Z AUTO 10006KT 050V150 9999 SCT030 SCT240 29/21 Q1015 TEMPO TSRA FEW026CB SCT100
  • 111030Z AUTO 11008KT 080V140 9999 BKN031 29/21 Q1015 TEMPO TSRA FEW026CB SCT100

TAF TAF LFKB
Valide du 11 à 09h jusqu'au 12 à 09h UTC


110800Z 1109/1209 12010KT CAVOK TX30/1112Z TN20/1203Z
PROB40
TEMPO 1112/1116 TSRA FEW026CB SCT100
BECMG 1119/1121 24005KT
ATIS : +33 4 95 59 19 40



MET'MAP, la Météo Aéronautique d'un coup d'oeil ! - Copyright ORBIFLY Décembre 2007 - Disclaimer

ORBIFLY MET'MAP TEAM :

Programmation & Développement : Alexandra Zaïnal
Sur une idée originale de : Baudouin d'Aumeries
Assistance à la programmation : Marc-Olivier Méhu
Soutien technique & logistique : Manuel Goepfert

Contact : metmap@orbifly.com




SOURCES & CREDITS :

   NOAA